createdAt,value
2019-02-10T00:03:53.355Z,2.87
2019-02-10T00:06:25.697Z,2.17
2019-02-10T00:09:12.062Z,2.73
2019-02-10T00:11:42.706Z,2.50
2019-02-10T00:14:13.544Z,2.03
2019-02-10T00:16:57.075Z,2.97
2019-02-10T00:19:42.632Z,2.33
2019-02-10T00:22:31.859Z,2.83
2019-02-10T00:25:02.222Z,2.60
2019-02-10T00:27:46.230Z,2.77
2019-02-10T00:30:16.613Z,2.43
2019-02-10T00:32:47.059Z,2.30
2019-02-10T00:35:36.813Z,2.97
2019-02-10T00:38:07.333Z,2.43
2019-02-10T00:43:58.493Z,2.67
2019-02-10T00:46:47.994Z,2.90
2019-02-10T00:49:18.429Z,2.30
2019-02-10T00:52:01.717Z,2.80
2019-02-10T00:57:51.074Z,2.80
2019-02-10T01:00:23.721Z,3.03
2019-02-10T01:02:54.113Z,2.70
2019-02-10T01:05:24.540Z,3.00
2019-02-10T01:08:14.246Z,2.90
2019-02-10T01:13:41.060Z,2.93
2019-02-10T01:16:23.408Z,2.50
2019-02-10T01:22:06.426Z,2.70
2019-02-10T01:24:56.064Z,2.63
2019-02-10T01:30:28.849Z,2.80
2019-02-10T01:32:59.449Z,2.77
2019-02-10T01:35:29.520Z,2.93
2019-02-10T01:37:59.798Z,3.20
2019-02-10T01:40:41.685Z,3.27
2019-02-10T01:43:11.987Z,3.67
2019-02-10T01:46:01.651Z,2.70
2019-02-10T01:48:32.370Z,2.93
2019-02-10T01:51:04.693Z,4.47
2019-02-10T01:53:34.999Z,3.47
2019-02-10T01:56:16.496Z,2.50
2019-02-10T01:58:46.809Z,2.00
2019-02-10T02:01:17.111Z,2.63
2019-02-10T02:04:07.186Z,2.60
2019-02-10T02:06:39.342Z,2.73
2019-02-10T02:12:20.664Z,3.33
2019-02-10T02:15:11.531Z,3.37
2019-02-10T02:17:42.309Z,2.93
2019-02-10T02:20:31.718Z,3.07
2019-02-10T02:23:01.991Z,3.17
2019-02-10T02:28:52.494Z,2.50
2019-02-10T02:31:41.927Z,2.43
2019-02-10T02:34:12.337Z,2.33
2019-02-10T02:37:07.333Z,2.57
2019-02-10T02:39:38.052Z,2.67
2019-02-10T02:42:09.169Z,2.83
2019-02-10T02:44:51.054Z,2.50
2019-02-10T02:47:33.415Z,2.43
2019-02-10T02:52:52.882Z,2.67
2019-02-10T02:55:23.650Z,2.30
2019-02-10T02:57:53.946Z,2.67
2019-02-10T03:00:24.316Z,3.00
2019-02-10T03:02:54.653Z,2.40
2019-02-10T03:05:29.043Z,2.30
2019-02-10T03:07:59.260Z,2.90
2019-02-10T03:10:41.762Z,2.37
2019-02-10T03:13:33.899Z,2.63
2019-02-10T03:16:04.227Z,2.73
2019-02-10T03:18:34.766Z,2.63
2019-02-10T03:21:17.254Z,2.60
2019-02-10T03:23:59.521Z,3.30
2019-02-10T03:26:29.817Z,2.87
2019-02-10T03:29:00.122Z,3.03
2019-02-10T03:37:02.062Z,2.40
2019-02-10T03:40:10.377Z,2.70
2019-02-10T03:43:01.305Z,2.37
2019-02-10T03:45:34.244Z,2.73
2019-02-10T03:48:15.863Z,3.20
2019-02-10T03:51:08.210Z,2.77
2019-02-10T03:56:28.991Z,3.40
2019-02-10T03:59:11.178Z,3.13
2019-02-10T04:01:41.431Z,3.60
2019-02-10T04:04:11.756Z,2.27
2019-02-10T04:06:54.167Z,3.17
2019-02-10T04:09:36.230Z,2.67
2019-02-10T04:12:06.903Z,2.43
2019-02-10T04:14:48.628Z,3.10
2019-02-10T04:17:30.919Z,3.03
2019-02-10T04:20:01.211Z,2.30
2019-02-10T04:22:31.902Z,2.50
2019-02-10T04:25:14.366Z,2.63
2019-02-10T04:27:44.610Z,3.20
2019-02-10T04:33:34.002Z,2.47
2019-02-10T04:36:04.296Z,2.37
2019-02-10T04:41:38.787Z,2.50
2019-02-10T04:44:11.080Z,2.27
2019-02-10T04:46:53.292Z,2.67
2019-02-10T04:49:43.515Z,2.60
2019-02-10T04:52:29.953Z,2.03
2019-02-10T04:55:00.503Z,2.57
2019-02-10T04:58:17.082Z,2.53
2019-02-10T05:00:47.516Z,2.20
2019-02-10T05:03:18.126Z,2.27
2019-02-10T05:06:08.072Z,2.30
2019-02-10T05:08:38.406Z,2.43
2019-02-10T05:11:27.806Z,2.73
2019-02-10T05:14:09.675Z,2.70
2019-02-10T05:16:39.956Z,2.80
2019-02-10T05:19:10.253Z,2.43
2019-02-10T05:21:59.590Z,2.03
2019-02-10T05:24:29.864Z,2.30
2019-02-10T05:27:00.039Z,2.33
2019-02-10T05:29:44.497Z,2.20
2019-02-10T05:32:14.856Z,2.53
2019-02-10T05:34:47.341Z,2.87
2019-02-10T05:37:29.595Z,2.50
2019-02-10T05:40:11.878Z,2.50
2019-02-10T05:42:43.146Z,3.00
2019-02-10T05:48:19.675Z,2.73
2019-02-10T05:50:50.366Z,2.00
2019-02-10T05:53:31.982Z,2.30
2019-02-10T05:56:02.379Z,2.50
2019-02-10T05:58:32.947Z,2.20
2019-02-10T06:01:42.324Z,2.50
2019-02-10T06:04:12.753Z,2.17
2019-02-10T06:06:44.980Z,2.83
2019-02-10T06:09:15.299Z,2.43
2019-02-10T06:12:18.125Z,2.30
2019-02-10T06:17:30.832Z,2.70
2019-02-10T06:20:32.307Z,2.60
2019-02-10T06:23:02.683Z,3.10
2019-02-10T06:25:33.950Z,2.47
2019-02-10T06:28:23.604Z,2.57
2019-02-10T06:31:13.217Z,2.93
2019-02-10T06:33:43.490Z,3.17
2019-02-10T06:36:32.861Z,2.60
2019-02-10T06:41:44.387Z,2.70
2019-02-10T06:47:17.088Z,2.50
2019-02-10T06:49:59.295Z,2.53
2019-02-10T06:52:29.723Z,2.87
2019-02-10T06:55:00.969Z,2.50
2019-02-10T06:57:49.189Z,2.50
2019-02-10T07:00:42.247Z,2.60
2019-02-10T07:06:54.152Z,1.90
2019-02-10T07:10:02.540Z,2.23
2019-02-10T07:12:52.341Z,2.40
2019-02-10T07:16:01.080Z,2.00
2019-02-10T07:19:09.783Z,2.13
2019-02-10T07:21:44.219Z,2.40
2019-02-10T07:24:59.104Z,2.07
2019-02-10T07:30:43.527Z,2.60
2019-02-10T07:33:53.303Z,2.27
2019-02-10T07:36:52.493Z,2.63
2019-02-10T07:40:06.763Z,2.40
2019-02-10T07:43:18.142Z,2.53
2019-02-10T07:46:29.310Z,2.40
2019-02-10T07:49:23.040Z,2.07
2019-02-10T07:55:39.568Z,1.93
2019-02-10T07:58:48.287Z,2.10
2019-02-10T08:01:41.892Z,1.97
2019-02-10T08:04:50.581Z,2.00
2019-02-10T08:08:02.047Z,1.80
2019-02-10T08:10:44.072Z,1.73
2019-02-10T08:13:52.681Z,1.63
2019-02-10T08:16:40.448Z,1.70
2019-02-10T08:20:22.998Z,2.00
2019-02-10T08:23:28.327Z,2.33
2019-02-10T08:26:45.184Z,1.60
2019-02-10T08:33:25.851Z,1.77
2019-02-10T08:36:34.598Z,1.30
2019-02-10T08:39:44.394Z,1.60
2019-02-10T08:42:54.225Z,2.27
2019-02-10T08:46:02.720Z,2.00
2019-02-10T08:49:39.526Z,3.80
2019-02-10T08:52:51.938Z,2.00
2019-02-10T09:02:01.052Z,3.50
2019-02-10T09:04:32.953Z,1.67
2019-02-10T09:10:26.067Z,1.47
2019-02-10T09:16:13.751Z,1.60
2019-02-10T09:24:29.900Z,1.40
2019-02-10T09:27:11.790Z,1.60
2019-02-10T09:29:42.076Z,1.63
2019-02-10T09:35:09.681Z,1.57
2019-02-10T09:38:32.685Z,1.70
2019-02-10T09:44:43.458Z,1.77
2019-02-10T09:47:13.752Z,1.97
2019-02-10T09:49:56.162Z,1.67
2019-02-10T09:52:40.128Z,1.90
2019-02-10T09:55:12.431Z,1.47
2019-02-10T10:00:58.902Z,1.50
2019-02-10T10:09:19.327Z,1.80
2019-02-10T10:18:18.674Z,1.63
2019-02-10T10:21:33.844Z,1.60
2019-02-10T10:24:06.607Z,1.77
2019-02-10T10:29:39.561Z,2.50
2019-02-10T10:35:42.242Z,1.70
2019-02-10T10:38:06.016Z,1.60
2019-02-10T10:46:51.642Z,1.57
2019-02-10T10:49:47.730Z,1.37
2019-02-10T10:55:34.947Z,1.70
2019-02-10T11:08:25.580Z,1.73
2019-02-10T11:14:41.132Z,1.70
2019-02-10T11:17:43.347Z,2.07
2019-02-10T11:20:54.826Z,1.73
2019-02-10T11:24:14.197Z,1.37
2019-02-10T11:29:57.337Z,1.50
2019-02-10T11:35:45.101Z,1.43
2019-02-10T11:57:21.904Z,1.50
2019-02-10T12:03:03.046Z,1.33
2019-02-10T12:05:54.932Z,1.30
2019-02-10T12:08:34.990Z,1.50
2019-02-10T12:14:32.718Z,2.00
2019-02-10T12:20:13.724Z,1.23
2019-02-10T12:23:03.395Z,1.80
2019-02-10T12:26:13.710Z,1.47
2019-02-10T12:34:52.536Z,1.43
2019-02-10T12:37:40.651Z,1.57
2019-02-10T12:40:27.843Z,1.60
2019-02-10T12:43:09.561Z,1.73
2019-02-10T12:49:05.322Z,1.40
2019-02-10T12:52:16.379Z,1.80
2019-02-10T12:58:23.196Z,1.17
2019-02-10T13:04:14.129Z,1.30
2019-02-10T13:06:55.648Z,1.47
2019-02-10T13:09:45.205Z,1.80
2019-02-10T13:12:35.844Z,1.40
2019-02-10T13:15:29.061Z,1.50
2019-02-10T13:30:53.366Z,1.63
2019-02-10T13:33:34.812Z,1.50
2019-02-10T13:36:08.189Z,1.40
2019-02-10T13:39:59.532Z,1.47
2019-02-10T13:41:56.609Z,1.33
2019-02-10T13:44:46.312Z,1.47
2019-02-10T13:53:09.108Z,1.50
2019-02-10T13:56:39.082Z,1.30
2019-02-10T13:59:49.282Z,1.40
2019-02-10T14:08:52.075Z,1.47
2019-02-10T14:14:44.157Z,1.30
2019-02-10T14:17:38.083Z,1.60
2019-02-10T14:20:48.597Z,1.80
2019-02-10T14:26:46.448Z,1.40
2019-02-10T14:29:34.075Z,1.50
2019-02-10T14:32:02.872Z,1.60
2019-02-10T14:34:45.126Z,1.37
2019-02-10T14:37:17.068Z,1.60
2019-02-10T14:46:37.572Z,1.60
2019-02-10T14:52:10.052Z,1.43
2019-02-10T14:55:02.194Z,1.63
2019-02-10T14:58:01.136Z,1.27
2019-02-10T15:01:08.712Z,1.60
2019-02-10T15:09:13.815Z,1.40
2019-02-10T15:11:55.813Z,1.60
2019-02-10T15:14:33.079Z,1.60
2019-02-10T15:17:24.773Z,1.33
2019-02-10T15:19:55.224Z,1.50
2019-02-10T15:22:56.033Z,1.43
2019-02-10T15:26:02.407Z,1.70
2019-02-10T15:28:59.344Z,1.70
2019-02-10T15:31:14.599Z,1.60
2019-02-10T15:34:06.509Z,1.77
2019-02-10T15:36:55.658Z,1.73
2019-02-10T15:40:22.956Z,1.40
2019-02-10T15:43:04.797Z,1.40
2019-02-10T15:46:03.212Z,1.80
2019-02-10T15:48:37.361Z,1.60
2019-02-10T15:51:09.925Z,1.90
2019-02-10T15:53:40.168Z,1.90
2019-02-10T15:56:33.522Z,2.13
2019-02-10T15:59:03.765Z,2.07
2019-02-10T16:04:57.946Z,1.90
2019-02-10T16:07:41.401Z,2.00
2019-02-10T16:11:05.349Z,2.10
2019-02-10T16:16:31.863Z,2.20
2019-02-10T16:19:31.736Z,1.80
2019-02-10T16:25:15.983Z,1.60
2019-02-10T16:28:37.895Z,2.13
2019-02-10T16:34:44.066Z,1.90
2019-02-10T16:40:37.206Z,1.97
2019-02-10T16:43:09.160Z,1.90
2019-02-10T16:45:58.785Z,1.40
2019-02-10T16:51:26.256Z,1.97
2019-02-10T16:54:36.239Z,2.20
2019-02-10T16:57:27.078Z,2.17
2019-02-10T17:00:55.250Z,1.87
2019-02-10T17:11:14.435Z,1.77
2019-02-10T17:13:56.953Z,1.70
2019-02-10T17:16:50.502Z,1.80
2019-02-10T17:25:21.097Z,1.60
2019-02-10T17:28:03.358Z,1.80
2019-02-10T17:30:52.810Z,1.80
2019-02-10T17:33:23.600Z,2.00
2019-02-10T17:36:07.968Z,2.07
2019-02-10T17:38:59.143Z,1.90
2019-02-10T17:44:39.694Z,1.40
2019-02-10T17:53:05.652Z,1.60
2019-02-10T17:56:06.631Z,1.90
2019-02-10T17:59:30.292Z,1.87
2019-02-10T18:07:30.710Z,2.00
2019-02-10T18:10:13.150Z,1.93
2019-02-10T18:12:43.538Z,1.90
2019-02-10T18:16:29.974Z,1.83
2019-02-10T18:19:19.269Z,2.00
2019-02-10T18:22:08.799Z,1.70
2019-02-10T18:25:16.230Z,1.97
2019-02-10T18:28:13.400Z,2.07
2019-02-10T18:30:58.242Z,2.03
2019-02-10T18:33:56.868Z,1.93
2019-02-10T18:40:18.788Z,1.90
2019-02-10T18:43:30.289Z,1.93
2019-02-10T18:49:48.948Z,1.70
2019-02-10T18:52:57.242Z,1.50
2019-02-10T18:55:49.228Z,1.50
2019-02-10T18:58:36.423Z,1.77
2019-02-10T19:01:29.017Z,1.43
2019-02-10T19:04:28.264Z,1.70
2019-02-10T19:07:25.225Z,1.60
2019-02-10T19:13:51.380Z,1.40
2019-02-10T19:17:11.617Z,1.50
2019-02-10T19:26:06.343Z,1.37
2019-02-10T19:28:58.633Z,1.43
2019-02-10T19:32:25.985Z,1.03
2019-02-10T19:35:18.002Z,1.10
2019-02-10T19:47:54.933Z,1.57
2019-02-10T19:50:39.235Z,1.30
2019-02-10T19:56:36.721Z,1.23
2019-02-10T20:02:41.389Z,1.10
2019-02-10T20:05:31.402Z,0.50
2019-02-10T20:08:32.036Z,0.90
2019-02-10T20:14:47.790Z,1.50
2019-02-10T20:21:04.873Z,0.93
2019-02-10T20:26:44.229Z,0.90
2019-02-10T20:29:35.095Z,0.87
2019-02-10T20:32:18.282Z,1.13
2019-02-10T20:35:20.373Z,1.10
2019-02-10T20:37:56.397Z,0.90
2019-02-10T20:40:40.561Z,0.70
2019-02-10T20:44:24.819Z,1.17
2019-02-10T20:46:59.781Z,0.80
2019-02-10T20:49:51.219Z,0.97
2019-02-10T20:52:46.219Z,1.03
2019-02-10T20:55:34.794Z,0.80
2019-02-10T20:58:27.095Z,0.50
2019-02-10T21:04:22.446Z,1.00
2019-02-10T21:07:12.114Z,0.83
2019-02-10T21:09:54.085Z,0.60
2019-02-10T21:12:45.119Z,0.70
2019-02-10T21:15:34.212Z,0.30
2019-02-10T21:18:23.754Z,0.50
2019-02-10T21:24:21.403Z,0.70
2019-02-10T21:30:03.355Z,0.73
2019-02-10T21:36:01.036Z,0.50
2019-02-10T21:39:02.707Z,0.67
2019-02-10T21:45:22.175Z,0.57
2019-02-10T21:47:57.713Z,0.53
2019-02-10T21:50:27.958Z,0.80
2019-02-10T21:52:58.313Z,0.67
2019-02-10T21:55:49.325Z,0.30
2019-02-10T22:01:24.660Z,0.50
2019-02-10T22:04:16.442Z,0.60
2019-02-10T22:06:48.731Z,0.40
2019-02-10T22:12:40.496Z,0.50
2019-02-10T22:15:52.286Z,0.43
2019-02-10T22:18:26.974Z,0.60
2019-02-10T22:21:17.989Z,0.80
2019-02-10T22:26:50.333Z,0.77
2019-02-10T22:32:10.021Z,0.70
2019-02-10T22:37:48.781Z,0.63
2019-02-10T22:40:36.452Z,0.80
2019-02-10T22:46:11.028Z,0.80
2019-02-10T22:48:53.281Z,1.00
2019-02-10T22:51:24.489Z,0.97
2019-02-10T22:53:55.164Z,0.70
2019-02-10T22:57:13.903Z,0.97
2019-02-10T22:59:45.455Z,0.80
2019-02-10T23:02:21.256Z,0.90
2019-02-10T23:05:11.002Z,0.53
2019-02-10T23:07:43.744Z,0.80
2019-02-10T23:10:45.181Z,0.80
2019-02-10T23:13:17.498Z,0.90
2019-02-10T23:25:07.393Z,1.20
2019-02-10T23:28:03.747Z,0.60
2019-02-10T23:30:34.122Z,0.63
2019-02-10T23:33:16.232Z,0.90
2019-02-10T23:36:25.932Z,0.83
2019-02-10T23:38:56.261Z,1.13
2019-02-10T23:41:45.670Z,0.77
2019-02-10T23:44:34.876Z,0.90
2019-02-10T23:47:05.195Z,0.93
2019-02-10T23:49:51.746Z,0.57
2019-02-10T23:52:22.027Z,0.57
2019-02-10T23:54:52.544Z,0.63
2019-02-10T23:57:34.534Z,0.80
